Time;durP1;ratioP1;P1;durP2;ratioP2;P2;SDS_P1;SDS_P2;PMS_P1;PMS_P2;Temp;Humidity;BMP_temperature;BMP_pressure;BME280_temperature;BME280_humidity;BME280_pressure;Samples;Min_cycle;Max_cycle;Signal;HPM_P1;HPM_P2
2023/01/16 00:02:13;;;;;;;5.38;1.80;;;4.90;99.90;;;;;;5094526;28;20036;-92
2023/01/16 00:04:38;;;;;;;8.02;1.85;;;4.90;99.90;;;;;;5095032;28;20031;-93
2023/01/16 00:07:04;;;;;;;8.50;1.70;;;5.00;99.90;;;;;;5078419;28;20169;-92
2023/01/16 00:09:29;;;;;;;10.35;2.00;;;5.00;99.90;;;;;;5094939;28;20035;-91
2023/01/16 00:11:55;;;;;;;8.73;2.15;;;5.00;99.90;;;;;;5077941;28;20035;-92
2023/01/16 00:14:20;;;;;;;8.70;1.67;;;5.10;99.90;;;;;;5077562;28;20043;-92
2023/01/16 00:16:46;;;;;;;7.63;1.55;;;5.10;99.90;;;;;;5077623;28;20047;-92
2023/01/16 00:19:12;;;;;;;8.77;1.88;;;5.10;99.90;;;;;;5078334;28;20036;-92
2023/01/16 00:21:37;;;;;;;7.78;1.70;;;5.10;99.90;;;;;;5077979;28;20122;-93
2023/01/16 00:24:06;;;;;;;4.60;1.60;;;5.20;99.90;;;;;;5077613;28;20035;-92
2023/01/16 00:26:31;;;;;;;7.53;1.77;;;5.20;99.90;;;;;;5078195;28;20044;-93
2023/01/16 00:28:57;;;;;;;6.35;1.48;;;5.20;99.90;;;;;;5077660;28;20036;-93
2023/01/16 00:31:25;;;;;;;8.90;1.85;;;5.20;99.90;;;;;;5094568;28;20050;-93
2023/01/16 00:33:51;;;;;;;7.03;1.98;;;5.20;99.90;;;;;;5094086;28;20398;-92
2023/01/16 00:36:17;;;;;;;8.15;1.23;;;5.20;99.90;;;;;;5077416;28;20044;-92
2023/01/16 00:38:42;;;;;;;7.22;1.70;;;5.20;99.90;;;;;;5077799;28;20058;-92
2023/01/16 00:41:08;;;;;;;7.32;1.63;;;5.20;99.90;;;;;;5077615;28;20035;-92
2023/01/16 00:43:34;;;;;;;4.30;1.55;;;5.30;99.90;;;;;;5077095;28;20433;-92
2023/01/16 00:46:00;;;;;;;5.63;1.30;;;5.30;99.90;;;;;;5077330;28;20039;-92
2023/01/16 00:48:25;;;;;;;6.13;2.17;;;5.30;99.90;;;;;;5077534;28;20036;-92
2023/01/16 00:50:51;;;;;;;6.15;1.42;;;5.30;99.90;;;;;;5094068;28;20493;-92
2023/01/16 00:53:17;;;;;;;9.50;1.80;;;5.30;99.90;;;;;;5076999;28;20039;-92
2023/01/16 00:55:42;;;;;;;7.63;1.60;;;5.30;99.90;;;;;;5077462;28;20589;-92
2023/01/16 00:58:09;;;;;;;6.72;1.40;;;5.30;99.90;;;;;;5077414;28;20038;-92
2023/01/16 01:00:35;;;;;;;7.30;1.48;;;5.30;99.90;;;;;;5077206;28;20035;-91
2023/01/16 01:03:02;;;;;;;7.88;1.73;;;5.30;99.90;;;;;;5076985;28;20105;-92
2023/01/16 01:05:28;;;;;;;7.90;1.85;;;5.30;99.90;;;;;;5072443;28;20115;-92
2023/01/16 01:07:54;;;;;;;7.15;1.65;;;5.30;99.90;;;;;;5084405;28;20122;-92
2023/01/16 01:10:19;;;;;;;9.07;1.65;;;5.30;99.90;;;;;;5082847;28;20028;-92
2023/01/16 01:12:45;;;;;;;5.18;1.33;;;5.40;99.90;;;;;;5082163;28;20489;-92
2023/01/16 01:15:11;;;;;;;7.40;1.48;;;5.40;99.90;;;;;;5082489;28;20032;-92
2023/01/16 01:17:36;;;;;;;9.75;1.40;;;5.40;99.90;;;;;;5067522;28;20036;-92
2023/01/16 01:20:03;;;;;;;8.25;1.48;;;5.40;99.90;;;;;;5083397;28;20032;-92
2023/01/16 01:22:28;;;;;;;4.40;1.17;;;5.40;99.90;;;;;;5082811;28;20454;-92
2023/01/16 01:24:54;;;;;;;7.53;1.90;;;5.40;99.90;;;;;;5067386;28;20496;-91
2023/01/16 01:27:20;;;;;;;6.30;1.58;;;5.40;99.90;;;;;;5066129;28;20024;-92
2023/01/16 01:29:45;;;;;;;8.73;1.63;;;5.40;99.90;;;;;;5070294;28;20039;-92
2023/01/16 01:32:11;;;;;;;8.05;1.45;;;5.50;99.90;;;;;;5071142;28;20040;-92
2023/01/16 01:34:36;;;;;;;5.40;1.58;;;5.50;99.90;;;;;;5068798;28;20044;-92
2023/01/16 01:37:04;;;;;;;7.10;1.20;;;5.50;99.90;;;;;;5069230;28;20038;-92
2023/01/16 01:39:30;;;;;;;8.02;1.30;;;5.50;99.90;;;;;;5068871;28;20031;-91
2023/01/16 01:42:41;;;;;;;5.78;1.33;;;5.50;99.90;;;;;;5086107;28;20050;-92
2023/01/16 01:44:47;;;;;;;5.65;1.40;;;5.50;99.90;;;;;;5077583;28;20052;-92
2023/01/16 01:47:14;;;;;;;8.90;1.63;;;5.50;99.90;;;;;;5060546;28;20109;-91
2023/01/16 01:49:41;;;;;;;6.90;1.45;;;5.50;99.90;;;;;;5060611;28;20068;-91
2023/01/16 01:52:08;;;;;;;11.98;1.63;;;5.50;99.90;;;;;;5077067;28;20409;-91
2023/01/16 01:54:45;;;;;;;8.00;1.63;;;5.50;99.90;;;;;;5060542;28;20075;-92
2023/01/16 01:57:20;;;;;;;7.35;2.15;;;5.50;99.90;;;;;;5060694;28;20044;-92
2023/01/16 02:00:11;;;;;;;7.75;1.48;;;5.50;99.90;;;;;;5077484;28;20485;-91
2023/01/16 02:02:42;;;;;;;5.65;1.30;;;5.50;99.90;;;;;;5059788;28;20137;-91
2023/01/16 02:05:12;;;;;;;9.23;1.38;;;5.60;99.90;;;;;;5060160;28;20508;-92
2023/01/16 02:07:38;;;;;;;7.88;1.48;;;5.60;99.90;;;;;;5076741;28;20043;-91
2023/01/16 02:10:21;;;;;;;6.68;1.88;;;5.60;99.90;;;;;;5077347;28;20040;-91
2023/01/16 02:12:47;;;;;;;;;;;5.60;99.90;;;;;;5060227;28;20131;-91
2023/01/16 02:15:13;;;;;;;6.25;1.17;;;5.60;99.90;;;;;;5060168;28;20105;-91
2023/01/16 02:20:33;;;;;;;8.25;1.63;;;5.60;99.90;;;;;;5075729;28;20075;-91
2023/01/16 02:23:39;;;;;;;5.88;1.33;;;5.60;99.90;;;;;;5059276;28;20048;-91
2023/01/16 02:26:40;;;;;;;7.80;1.73;;;5.60;99.90;;;;;;5076897;28;20047;-91
2023/01/16 02:29:34;;;;;;;7.15;1.67;;;5.60;99.90;;;;;;5076540;28;20036;-90
2023/01/16 02:32:33;;;;;;;6.50;1.48;;;5.60;99.90;;;;;;5059616;28;20431;-91
2023/01/16 02:35:08;;;;;;;7.22;1.73;;;5.60;99.90;;;;;;5059981;28;20036;-91
2023/01/16 02:37:49;;;;;;;2.38;1.10;;;5.60;99.90;;;;;;5076707;28;20047;-92
2023/01/16 02:40:43;;;;;;;7.03;1.55;;;5.60;99.90;;;;;;5059637;28;20036;-92
2023/01/16 02:43:30;;;;;;;7.78;1.70;;;5.60;99.90;;;;;;5075991;28;20040;-91
2023/01/16 02:46:05;;;;;;;5.85;1.42;;;5.60;99.90;;;;;;5059954;28;20124;-91
2023/01/16 02:48:58;;;;;;;3.97;1.30;;;5.60;99.90;;;;;;5059961;28;20035;-91
2023/01/16 02:51:48;;;;;;;8.23;1.58;;;5.60;99.90;;;;;;5059724;28;20042;-91
2023/01/16 02:54:25;;;;;;;5.28;1.90;;;5.60;99.90;;;;;;5059197;28;20122;-90
2023/01/16 02:56:59;;;;;;;5.88;1.85;;;5.60;99.90;;;;;;5076099;28;20089;-90
2023/01/16 02:59:28;;;;;;;9.27;1.40;;;5.50;99.90;;;;;;5059383;28;20126;-91
2023/01/16 03:01:58;;;;;;;4.80;1.80;;;5.50;99.90;;;;;;5059404;28;20036;-91
2023/01/16 03:04:36;;;;;;;6.65;1.77;;;5.50;99.90;;;;;;5058976;28;20036;-92
2023/01/16 03:07:26;;;;;;;4.85;1.50;;;5.50;99.90;;;;;;5076017;28;20051;-91
2023/01/16 03:10:01;;;;;;;5.32;1.50;;;5.40;99.90;;;;;;5075788;28;20044;-91
2023/01/16 03:12:55;;;;;;;5.03;1.52;;;5.40;99.90;;;;;;5058820;28;20081;-91
2023/01/16 03:15:23;;;;;;;;;;;5.40;99.90;;;;;;5059639;28;20042;-91
2023/01/16 03:17:58;;;;;;;6.95;1.30;;;5.40;99.90;;;;;;5058954;28;19920;-92
2023/01/16 03:20:53;;;;;;;5.13;1.48;;;5.40;99.90;;;;;;5058917;28;20044;-92
2023/01/16 03:23:52;;;;;;;5.53;1.50;;;5.40;99.90;;;;;;5075168;28;20501;-91
2023/01/16 03:26:24;;;;;;;6.60;1.58;;;5.40;99.90;;;;;;5058904;28;20542;-91
2023/01/16 03:29:01;;;;;;;5.88;1.60;;;5.40;99.90;;;;;;5058762;28;20089;-91
2023/01/16 03:31:33;;;;;;;6.47;1.92;;;5.40;99.90;;;;;;5058698;28;20036;-91
2023/01/16 03:34:12;;;;;;;6.40;2.50;;;5.40;99.90;;;;;;5075034;28;20079;-92
2023/01/16 03:36:48;;;;;;;7.35;2.45;;;5.40;99.90;;;;;;5058731;28;20067;-91
2023/01/16 03:39:16;;;;;;;6.55;2.42;;;5.40;99.90;;;;;;5058808;28;20082;-91
2023/01/16 03:41:45;;;;;;;6.95;2.67;;;5.40;99.90;;;;;;5058162;28;20513;-91
2023/01/16 03:44:24;;;;;;;7.97;3.03;;;5.40;99.90;;;;;;5058318;28;20089;-92
2023/01/16 03:46:50;;;;;;;7.78;3.03;;;5.40;99.90;;;;;;5075208;28;20081;-91
2023/01/16 03:49:24;;;;;;;8.85;3.13;;;5.30;99.90;;;;;;5058237;28;20511;-91
2023/01/16 03:51:58;;;;;;;7.70;2.83;;;5.30;99.90;;;;;;5074616;28;20036;-91
2023/01/16 03:54:48;;;;;;;8.13;3.20;;;5.30;99.90;;;;;;5058220;28;20028;-92
2023/01/16 03:57:26;;;;;;;10.20;3.58;;;5.30;99.90;;;;;;5058533;28;20044;-91
2023/01/16 03:59:53;;;;;;;8.88;4.32;;;5.20;99.90;;;;;;5075064;28;20040;-91
2023/01/16 04:02:48;;;;;;;9.25;4.43;;;5.20;99.90;;;;;;5057650;28;20481;-91
2023/01/16 04:05:23;;;;;;;11.43;4.60;;;5.20;99.90;;;;;;5074830;28;20032;-91
2023/01/16 04:08:03;;;;;;;10.45;5.22;;;5.20;99.90;;;;;;5058058;28;20089;-91
2023/01/16 04:10:33;;;;;;;11.88;5.47;;;5.20;99.90;;;;;;5058253;28;20039;-92
2023/01/16 04:13:07;;;;;;;11.43;5.28;;;5.20;99.90;;;;;;5058056;28;20708;-91
2023/01/16 04:15:35;;;;;;;11.52;5.13;;;5.20;99.90;;;;;;5058025;28;20043;-91
2023/01/16 04:18:01;;;;;;;11.38;5.45;;;5.20;99.90;;;;;;5057802;28;20036;-91
2023/01/16 04:20:29;;;;;;;13.02;6.15;;;5.20;99.90;;;;;;5057865;28;20181;-91
2023/01/16 04:22:55;;;;;;;12.15;6.03;;;5.20;99.90;;;;;;5057518;28;20112;-90
2023/01/16 04:25:21;;;;;;;12.43;6.22;;;5.20;99.90;;;;;;5057921;28;20544;-91
2023/01/16 04:27:47;;;;;;;15.27;6.85;;;5.10;99.90;;;;;;5074324;28;20039;-91
2023/01/16 04:30:15;;;;;;;15.00;5.95;;;5.10;99.90;;;;;;5057944;28;20046;-91
2023/01/16 04:32:41;;;;;;;12.75;6.03;;;5.10;99.90;;;;;;5057114;28;20075;-91
2023/01/16 04:35:07;;;;;;;16.38;6.80;;;5.00;99.90;;;;;;5057387;28;20044;-91
2023/01/16 04:37:33;;;;;;;12.93;5.85;;;5.00;99.90;;;;;;5074420;28;20066;-91
2023/01/16 04:39:59;;;;;;;11.88;5.90;;;5.00;99.90;;;;;;5074579;28;20040;-91
2023/01/16 04:42:25;;;;;;;11.20;5.88;;;4.90;99.90;;;;;;5056881;28;20486;-91
2023/01/16 04:44:50;;;;;;;13.38;5.68;;;5.00;99.90;;;;;;5074385;28;20040;-91
2023/01/16 04:47:16;;;;;;;9.82;4.65;;;5.00;99.90;;;;;;5057340;28;20040;-91
2023/01/16 04:49:41;;;;;;;10.20;4.93;;;5.00;99.90;;;;;;5074292;28;20075;-91
2023/01/16 04:52:08;;;;;;;11.75;4.70;;;4.90;99.90;;;;;;5056957;28;20535;-91
2023/01/16 04:54:33;;;;;;;10.60;4.35;;;5.00;99.90;;;;;;5057298;28;20036;-91
2023/01/16 04:57:00;;;;;;;13.18;4.47;;;4.90;99.90;;;;;;5057210;28;20092;-91
2023/01/16 04:59:26;;;;;;;12.15;4.75;;;4.90;99.90;;;;;;5057212;28;20040;-91
2023/01/16 05:01:52;;;;;;;11.18;3.50;;;4.80;99.90;;;;;;5056640;28;20159;-91
2023/01/16 05:04:19;;;;;;;14.60;4.45;;;4.80;99.90;;;;;;5056411;28;20058;-91
2023/01/16 05:06:45;;;;;;;10.38;3.88;;;4.80;99.90;;;;;;5057422;28;20048;-91
2023/01/16 05:09:10;;;;;;;10.10;4.35;;;4.80;99.90;;;;;;5057267;28;20043;-91
2023/01/16 05:11:36;;;;;;;11.25;4.20;;;4.70;99.90;;;;;;5057109;28;20067;-91
2023/01/16 05:14:07;;;;;;;13.18;4.18;;;4.70;99.90;;;;;;5057144;28;20078;-92
2023/01/16 05:16:34;;;;;;;8.85;3.78;;;4.70;99.90;;;;;;5073707;28;20490;-91
2023/01/16 05:19:00;;;;;;;10.23;3.83;;;4.70;99.90;;;;;;5073831;28;20051;-91
2023/01/16 05:21:26;;;;;;;8.23;3.42;;;4.70;99.90;;;;;;5057174;28;20477;-91
2023/01/16 05:23:51;;;;;;;13.73;3.67;;;4.60;99.90;;;;;;5073501;28;20525;-91
2023/01/16 05:26:17;;;;;;;10.55;3.50;;;4.60;99.90;;;;;;5073834;28;20040;-91
2023/01/16 05:28:43;;;;;;;10.82;3.42;;;4.60;99.90;;;;;;5073666;28;20501;-91
2023/01/16 05:31:09;;;;;;;8.57;3.97;;;4.60;99.90;;;;;;5056656;28;20039;-91
2023/01/16 05:33:35;;;;;;;8.90;3.67;;;4.60;99.90;;;;;;5073280;28;20036;-92
2023/01/16 05:36:00;;;;;;;11.75;3.28;;;4.60;99.90;;;;;;5057137;28;20047;-91
2023/01/16 05:38:26;;;;;;;12.63;3.40;;;4.50;99.90;;;;;;5073612;28;20044;-90
2023/01/16 05:40:51;;;;;;;11.15;4.05;;;4.50;99.90;;;;;;5056619;28;20071;-91
2023/01/16 05:43:17;;;;;;;9.18;3.60;;;4.50;99.90;;;;;;5056409;28;20075;-92
2023/01/16 05:45:43;;;;;;;9.68;3.17;;;4.50;99.90;;;;;;5056927;28;20437;-91
2023/01/16 05:48:08;;;;;;;8.07;2.90;;;4.50;99.90;;;;;;5056598;28;20032;-91
2023/01/16 05:50:34;;;;;;;9.27;3.58;;;4.50;99.90;;;;;;5073488;28;20036;-91
2023/01/16 05:53:00;;;;;;;9.82;3.00;;;4.50;99.90;;;;;;5056093;28;20032;-91
2023/01/16 05:55:25;;;;;;;8.82;3.13;;;4.50;99.90;;;;;;5056720;28;20036;-91
2023/01/16 05:57:51;;;;;;;7.93;3.17;;;4.50;99.90;;;;;;5056459;28;20044;-91
2023/01/16 06:00:17;;;;;;;12.00;3.00;;;4.50;99.90;;;;;;5056738;28;20032;-91
2023/01/16 06:02:44;;;;;;;10.43;3.60;;;4.50;99.90;;;;;;5072743;28;20032;-91
2023/01/16 06:05:10;;;;;;;7.38;2.95;;;4.50;99.90;;;;;;5057064;28;20439;-90
2023/01/16 06:07:36;;;;;;;12.00;3.00;;;4.50;99.90;;;;;;5073336;28;20036;-91
2023/01/16 06:10:01;;;;;;;9.25;3.10;;;4.50;99.90;;;;;;5056911;28;20036;-91
2023/01/16 06:12:27;;;;;;;9.23;2.95;;;4.50;99.90;;;;;;5056088;28;20531;-91
2023/01/16 06:14:53;;;;;;;9.82;3.13;;;4.50;99.90;;;;;;5075316;28;20036;-91
2023/01/16 06:17:19;;;;;;;8.40;2.65;;;4.50;99.90;;;;;;5060123;28;20097;-91
2023/01/16 06:19:45;;;;;;;8.90;2.75;;;4.50;99.90;;;;;;5077163;28;20048;-90
2023/01/16 06:22:12;;;;;;;7.60;2.88;;;4.60;99.90;;;;;;5059812;28;20036;-91
2023/01/16 06:24:38;;;;;;;7.75;2.58;;;4.60;99.90;;;;;;5076755;28;20043;-91
2023/01/16 06:27:03;;;;;;;6.93;2.50;;;4.50;99.90;;;;;;5059950;28;20036;-91
2023/01/16 06:29:29;;;;;;;11.88;2.85;;;4.50;99.90;;;;;;5059934;28;20387;-91
2023/01/16 06:31:54;;;;;;;7.88;2.30;;;4.60;99.90;;;;;;5059541;28;20036;-90
2023/01/16 06:34:20;;;;;;;8.43;3.00;;;4.60;99.90;;;;;;5076517;28;20043;-91
2023/01/16 06:36:47;;;;;;;7.47;2.83;;;4.60;99.90;;;;;;5076583;28;20493;-91
2023/01/16 06:39:14;;;;;;;8.45;2.60;;;4.50;99.90;;;;;;5059974;28;20409;-91
2023/01/16 06:41:39;;;;;;;8.85;2.45;;;4.50;99.90;;;;;;5076422;28;20122;-91
2023/01/16 06:44:05;;;;;;;6.90;2.42;;;4.50;99.90;;;;;;5059398;28;20195;-90
2023/01/16 06:46:31;;;;;;;5.63;2.40;;;4.50;99.90;;;;;;5059478;28;20044;-91
2023/01/16 06:48:56;;;;;;;10.00;2.55;;;4.50;99.90;;;;;;5059663;28;20563;-91
2023/01/16 06:51:22;;;;;;;7.72;2.38;;;4.50;99.90;;;;;;5059683;28;20036;-92
2023/01/16 06:53:48;;;;;;;8.95;2.55;;;4.50;99.90;;;;;;5059075;28;20040;-92
2023/01/16 06:56:14;;;;;;;8.50;2.47;;;4.50;99.90;;;;;;5076149;28;20036;-91
2023/01/16 06:58:39;;;;;;;8.52;2.50;;;4.50;99.90;;;;;;5059373;28;20118;-91
2023/01/16 07:01:06;;;;;;;6.95;2.28;;;4.50;99.90;;;;;;5059249;28;20178;-91
2023/01/16 07:03:32;;;;;;;10.75;2.60;;;4.50;99.90;;;;;;5058957;28;20063;-92
2023/01/16 07:05:58;;;;;;;7.38;2.75;;;4.40;99.90;;;;;;5059323;28;20040;-91
2023/01/16 07:08:24;;;;;;;8.95;2.30;;;4.40;99.90;;;;;;5059485;28;20046;-92
2023/01/16 07:10:50;;;;;;;7.05;2.35;;;4.40;99.90;;;;;;5075730;28;20047;-91
2023/01/16 07:13:16;;;;;;;9.27;2.90;;;4.40;99.90;;;;;;5059039;28;20042;-92
2023/01/16 07:24:03;;;;;;;8.82;2.45;;;4.40;99.90;;;;;;5075011;28;20482;-92
2023/01/16 07:26:30;;;;;;;9.23;3.05;;;4.40;99.90;;;;;;5057820;28;20512;-91
2023/01/16 07:28:57;;;;;;;10.07;3.42;;;4.40;99.90;;;;;;5075532;28;20123;-92
2023/01/16 07:31:23;;;;;;;9.68;2.60;;;4.40;99.90;;;;;;5058667;28;20040;-91
2023/01/16 07:33:49;;;;;;;9.02;3.40;;;4.40;99.90;;;;;;5058442;28;20036;-91
2023/01/16 07:36:15;;;;;;;10.45;2.75;;;4.40;99.90;;;;;;5058743;28;20049;-92
2023/01/16 07:38:40;;;;;;;9.63;2.67;;;4.40;99.90;;;;;;5058499;28;20068;-92
2023/01/16 07:41:06;;;;;;;9.00;2.70;;;4.40;99.90;;;;;;5058730;28;20412;-92
2023/01/16 07:43:31;;;;;;;12.63;2.90;;;4.40;99.90;;;;;;5058212;28;20062;-91
2023/01/16 07:45:57;;;;;;;8.20;2.70;;;4.40;99.90;;;;;;5058237;28;20085;-92
2023/01/16 07:48:23;;;;;;;9.75;2.95;;;4.50;99.90;;;;;;5075390;28;20035;-91
2023/01/16 07:50:50;;;;;;;10.23;2.95;;;4.50;99.90;;;;;;5057997;28;20481;-92
2023/01/16 07:53:16;;;;;;;9.93;3.33;;;4.40;99.90;;;;;;5057569;28;20562;-91
2023/01/16 07:55:42;;;;;;;10.15;3.22;;;4.40;99.90;;;;;;5058038;28;20036;-91
2023/01/16 07:58:07;;;;;;;9.80;2.70;;;4.50;99.90;;;;;;5057804;28;20040;-92
2023/01/16 08:00:33;;;;;;;10.80;3.08;;;4.50;99.90;;;;;;5074860;28;20036;-92
2023/01/16 08:02:59;;;;;;;8.90;2.88;;;4.50;99.90;;;;;;5065452;28;20089;-91
2023/01/16 08:05:24;;;;;;;9.60;3.08;;;4.50;99.90;;;;;;5077277;28;20129;-92
2023/01/16 08:07:50;;;;;;;9.27;2.60;;;4.50;99.90;;;;;;5077093;28;20028;-91
2023/01/16 08:10:16;;;;;;;6.75;2.42;;;4.50;99.90;;;;;;5077079;28;20561;-91
2023/01/16 08:12:41;;;;;;;8.68;2.65;;;4.50;99.90;;;;;;5076738;28;20044;-91
2023/01/16 08:15:07;;;;;;;6.18;2.30;;;4.50;99.90;;;;;;5076695;28;20068;-90
2023/01/16 08:17:33;;;;;;;7.32;2.25;;;4.60;99.90;;;;;;5076826;28;20416;-90
2023/01/16 08:19:58;;;;;;;7.63;2.47;;;4.60;99.90;;;;;;5076116;28;20032;-90
2023/01/16 08:22:24;;;;;;;10.25;2.95;;;4.60;99.90;;;;;;5076043;28;20075;-91
2023/01/16 08:24:50;;;;;;;7.22;2.33;;;4.60;99.90;;;;;;5076886;28;20116;-91
2023/01/16 08:27:15;;;;;;;7.97;2.60;;;4.60;99.90;;;;;;5076203;28;20036;-90
2023/01/16 08:29:41;;;;;;;6.95;2.40;;;4.60;99.90;;;;;;5076167;28;20036;-91
2023/01/16 08:32:07;;;;;;;7.55;2.20;;;4.60;99.90;;;;;;5093410;28;20439;-91
2023/01/16 08:34:32;;;;;;;6.82;2.72;;;4.70;99.90;;;;;;5076483;28;20507;-90
2023/01/16 08:36:58;;;;;;;5.28;1.75;;;4.70;99.90;;;;;;5093506;28;20036;-92
2023/01/16 08:39:25;;;;;;;10.30;2.42;;;4.70;99.90;;;;;;5093954;28;20405;-90
2023/01/16 08:53:02;;;;;;;6.25;2.10;;;4.80;99.90;;;;;;5081289;28;20051;-91
2023/01/16 08:55:28;;;;;;;6.78;1.92;;;4.80;99.90;;;;;;5065583;28;20549;-91
2023/01/16 08:57:53;;;;;;;5.32;1.85;;;4.80;99.90;;;;;;5066340;28;20185;-91
2023/01/16 09:00:19;;;;;;;7.10;2.03;;;4.80;99.90;;;;;;5066903;28;20032;-91
2023/01/16 09:02:46;;;;;;;6.53;2.10;;;4.80;99.90;;;;;;5065080;28;20081;-91
2023/01/16 09:05:13;;;;;;;5.88;1.67;;;4.80;99.90;;;;;;5065426;28;20405;-91
2023/01/16 09:07:39;;;;;;;6.95;2.03;;;4.80;99.90;;;;;;5070709;28;20477;-91
2023/01/16 09:10:05;;;;;;;6.40;1.50;;;4.80;99.90;;;;;;5093280;28;20047;-92
2023/01/16 09:15:15;;;;;;;9.55;2.38;;;4.90;99.90;;;;;;5093178;28;20130;-91
2023/01/16 09:17:41;;;;;;;4.22;1.67;;;4.90;99.90;;;;;;5076233;28;20122;-91
2023/01/16 09:20:07;;;;;;;4.22;1.60;;;4.90;99.90;;;;;;5093707;28;20416;-90
2023/01/16 09:22:33;;;;;;;6.35;1.80;;;4.90;99.90;;;;;;5092539;28;20126;-90
2023/01/16 09:24:58;;;;;;;5.40;2.15;;;4.90;99.90;;;;;;5076339;28;20526;-91
2023/01/16 09:27:24;;;;;;;9.90;2.42;;;4.90;99.90;;;;;;5076584;28;20502;-90
2023/01/16 09:29:51;;;;;;;4.63;1.55;;;4.90;99.90;;;;;;5093412;28;20093;-90
2023/01/16 09:32:18;;;;;;;5.70;1.45;;;4.90;99.90;;;;;;5075722;28;20919;-89
2023/01/16 09:34:44;;;;;;;5.72;1.95;;;5.00;99.90;;;;;;5064608;28;20040;-90
2023/01/16 09:37:10;;;;;;;5.38;1.60;;;5.00;99.90;;;;;;5060316;28;20047;-90
2023/01/16 09:39:36;;;;;;;5.82;1.50;;;5.00;99.90;;;;;;5091157;28;20655;-89
2023/01/16 09:44:48;;;;;;;4.80;1.60;;;5.10;99.90;;;;;;5091576;28;20101;-90
2023/01/16 09:47:14;;;;;;;3.50;1.08;;;5.00;99.90;;;;;;5073296;28;20036;-90
2023/01/16 09:49:51;;;;;;;5.43;1.67;;;5.10;99.90;;;;;;5092003;28;20047;-90
2023/01/16 09:58:35;;;;;;;5.20;1.52;;;5.10;99.90;;;;;;5092586;28;20130;-89
2023/01/16 10:01:02;;;;;;;4.25;1.25;;;5.10;99.90;;;;;;5077457;28;20067;-90
2023/01/16 10:03:28;;;;;;;2.53;1.05;;;5.10;99.90;;;;;;5076731;28;20043;-90
2023/01/16 10:06:22;;;;;;;5.72;1.20;;;5.10;99.90;;;;;;5078648;28;20031;-90
2023/01/16 10:09:03;;;;;;;5.50;1.40;;;5.10;99.90;;;;;;5095635;28;20044;-90
2023/01/16 10:11:40;;;;;;;4.30;1.20;;;5.10;99.90;;;;;;5076548;28;20327;-90
2023/01/16 10:14:25;;;;;;;5.60;1.20;;;5.10;99.90;;;;;;5077945;28;20066;-89
2023/01/16 10:17:21;;;;;;;5.40;2.95;;;5.10;99.90;;;;;;5035080;28;20050;-89
2023/01/16 10:20:02;;;;;;;5.38;1.35;;;5.10;99.90;;;;;;5084362;28;20583;-91
2023/01/16 10:23:18;;;;;;;3.28;1.00;;;5.10;99.90;;;;;;5069066;28;20036;-91
2023/01/16 10:25:56;;;;;;;5.13;1.15;;;5.10;99.90;;;;;;4981765;28;20508;-90
2023/01/16 10:28:25;;;;;;;4.82;1.30;;;5.00;99.90;;;;;;4968683;28;20042;-90
2023/01/16 10:31:01;;;;;;;4.65;1.17;;;5.00;99.90;;;;;;4967854;28;20145;-91
2023/01/16 10:33:38;;;;;;;4.78;1.67;;;5.10;99.90;;;;;;4968734;28;20154;-91
2023/01/16 10:36:05;;;;;;;5.72;1.40;;;5.00;99.90;;;;;;4984397;28;20077;-90
2023/01/16 10:49:25;;;;;;;4.40;1.77;;;5.00;99.90;;;;;;4979703;28;20042;-91
2023/01/16 10:49:30;;;;;;;3.80;1.00;;;5.00;99.90;;;;;;4981145;28;20524;-91
2023/01/16 10:52:00;;;;;;;5.57;1.38;;;5.00;99.90;;;;;;4967624;28;20038;-90
2023/01/16 10:54:25;;;;;;;6.68;1.50;;;5.00;99.90;;;;;;4965867;28;20042;-91
2023/01/16 10:56:51;;;;;;;7.38;1.40;;;5.00;99.90;;;;;;4982970;28;20034;-91
2023/01/16 10:59:19;;;;;;;3.75;1.48;;;5.10;99.90;;;;;;4968176;28;20041;-90
2023/01/16 11:01:47;;;;;;;4.55;1.20;;;5.00;99.90;;;;;;5046505;28;20044;-91
2023/01/16 11:04:12;;;;;;;4.75;1.40;;;5.10;99.90;;;;;;5066965;28;20028;-91
2023/01/16 11:06:41;;;;;;;3.35;1.20;;;5.10;99.90;;;;;;5066561;28;20080;-91
2023/01/16 11:09:19;;;;;;;5.35;1.30;;;5.10;99.90;;;;;;5066413;28;20064;-91
2023/01/16 11:20:30;;;;;;;3.58;1.30;;;5.10;99.90;;;;;;5092983;28;20044;-91
2023/01/16 11:23:05;;;;;;;4.57;1.30;;;5.10;99.90;;;;;;5076920;28;20089;-92
2023/01/16 11:25:31;;;;;;;3.30;1.20;;;5.10;99.90;;;;;;5094738;28;20027;-90
2023/01/16 11:28:02;;;;;;;4.32;1.30;;;5.10;99.90;;;;;;5093340;28;20063;-91
2023/01/16 11:30:31;;;;;;;6.38;1.58;;;5.10;99.90;;;;;;5077791;28;20028;-91
2023/01/16 11:32:58;;;;;;;4.15;1.42;;;5.10;99.90;;;;;;5077333;28;20039;-90
2023/01/16 11:35:35;;;;;;;6.05;1.50;;;5.10;99.90;;;;;;5077249;28;20088;-91
2023/01/16 11:38:03;;;;;;;6.47;1.80;;;5.10;99.90;;;;;;5077514;28;20117;-91
2023/01/16 11:40:43;;;;;;;8.18;1.40;;;5.10;99.90;;;;;;5075940;28;20040;-91
2023/01/16 11:46:30;;;;;;;5.22;1.40;;;5.20;99.90;;;;;;5091962;28;20040;-90
2023/01/16 11:49:03;;;;;;;4.22;1.30;;;5.20;99.90;;;;;;5076474;28;20042;-89
2023/01/16 11:51:32;;;;;;;4.43;1.50;;;5.20;99.90;;;;;;5092310;28;20065;-90
2023/01/16 11:54:00;;;;;;;5.38;1.52;;;5.20;99.90;;;;;;5076628;28;20525;-90
2023/01/16 11:56:41;;;;;;;3.90;1.27;;;5.30;99.90;;;;;;5092138;28;20035;-91
2023/01/16 11:59:18;;;;;;;4.43;1.38;;;5.30;99.90;;;;;;5075978;28;20040;-91
2023/01/16 12:04:29;;;;;;;3.58;1.38;;;5.30;99.90;;;;;;5094475;28;20047;-91
2023/01/16 12:07:16;;;;;;;5.43;1.35;;;5.40;99.90;;;;;;5092867;28;20040;-91
2023/01/16 12:10:15;;;;;;;4.88;1.23;;;5.40;99.90;;;;;;5076638;28;20075;-91
2023/01/16 12:16:07;;;;;;;4.50;1.45;;;5.50;99.90;;;;;;5089926;28;20032;-91
2023/01/16 12:19:24;;;;;;;3.50;1.17;;;5.50;99.90;;;;;;5094240;28;20028;-91
2023/01/16 12:22:10;;;;;;;4.38;1.27;;;5.50;99.90;;;;;;5058307;28;20135;-91
2023/01/16 12:24:43;;;;;;;5.32;1.75;;;5.50;99.90;;;;;;5075870;28;20036;-90
2023/01/16 12:27:33;;;;;;;5.80;1.92;;;5.50;99.90;;;;;;5083865;28;20031;-91
2023/01/16 12:30:09;;;;;;;4.32;1.52;;;5.50;99.90;;;;;;5064631;28;20042;-90
2023/01/16 12:32:41;;;;;;;5.47;1.40;;;5.50;99.90;;;;;;5066552;28;20123;-91
2023/01/16 12:35:17;;;;;;;5.15;1.65;;;5.50;99.90;;;;;;5066310;28;20130;-90
2023/01/16 12:38:16;;;;;;;5.20;1.83;;;5.50;99.90;;;;;;5066654;28;20047;-91
2023/01/16 12:44:28;;;;;;;2.97;1.20;;;5.50;99.90;;;;;;5080601;28;20047;-91
2023/01/16 12:47:35;;;;;;;4.03;1.33;;;5.50;99.90;;;;;;5065222;28;20098;-90
2023/01/16 12:50:28;;;;;;;2.83;1.20;;;5.60;99.90;;;;;;5064782;28;20061;-91
2023/01/16 12:53:33;;;;;;;3.88;1.40;;;5.60;99.90;;;;;;5066767;28;20086;-90
2023/01/16 12:56:22;;;;;;;3.78;1.30;;;5.60;99.90;;;;;;5065347;28;20505;-91
2023/01/16 12:58:53;;;;;;;4.03;1.67;;;5.60;99.90;;;;;;5091342;28;20039;-90
2023/01/16 13:01:27;;;;;;;2.95;1.00;;;5.60;99.90;;;;;;5091358;28;20124;-90
2023/01/16 13:04:19;;;;;;;3.60;1.20;;;5.60;99.90;;;;;;5075744;28;20036;-91
2023/01/16 13:06:47;;;;;;;4.43;1.23;;;5.60;99.90;;;;;;5075458;28;20042;-90
2023/01/16 13:09:25;;;;;;;4.03;1.50;;;5.70;99.90;;;;;;5075273;28;20040;-91
2023/01/16 13:14:58;;;;;;;3.13;1.20;;;5.70;99.90;;;;;;5092910;28;20051;-91
2023/01/16 13:17:36;;;;;;;2.88;1.10;;;5.70;99.90;;;;;;5091459;28;20036;-90
2023/01/16 13:20:04;;;;;;;3.13;1.13;;;5.70;99.90;;;;;;5074928;28;20043;-91
2023/01/16 13:22:42;;;;;;;3.75;1.10;;;5.80;99.90;;;;;;5090902;28;20048;-91
2023/01/16 13:25:30;;;;;;;3.72;1.15;;;5.90;99.90;;;;;;5078390;28;20504;-91
2023/01/16 13:28:02;;;;;;;4.32;1.10;;;6.00;99.90;;;;;;5096281;28;20042;-91
2023/01/16 13:30:27;;;;;;;2.53;1.10;;;6.00;99.90;;;;;;5076685;28;20046;-91
2023/01/16 13:33:13;;;;;;;2.67;1.05;;;6.00;99.90;;;;;;5079777;28;20043;-91
2023/01/16 13:36:03;;;;;;;4.00;1.02;;;6.10;99.90;;;;;;5095565;28;20032;-91
2023/01/16 13:38:43;;;;;;;1.65;0.80;;;6.10;99.90;;;;;;5079542;28;20045;-90
2023/01/16 13:41:21;;;;;;;1.85;0.80;;;6.10;99.90;;;;;;5077298;28;20122;-90
2023/01/16 13:46:50;;;;;;;3.38;0.90;;;6.00;99.90;;;;;;5095515;28;20044;-90
2023/01/16 13:49:20;;;;;;;2.53;0.93;;;6.00;99.90;;;;;;5077990;28;20578;-91
2023/01/16 13:51:48;;;;;;;2.08;0.77;;;6.00;99.90;;;;;;5078764;28;20123;-90
2023/01/16 13:54:29;;;;;;;2.10;0.90;;;6.00;99.90;;;;;;5095256;28;20043;-91
2023/01/16 13:57:01;;;;;;;2.85;1.00;;;6.00;99.90;;;;;;5079174;28;20036;-91
2023/01/16 13:59:42;;;;;;;3.47;0.87;;;6.00;99.90;;;;;;5094674;28;20084;-91
2023/01/16 14:02:43;;;;;;;2.95;0.90;;;6.00;99.90;;;;;;5088936;28;20445;-91
2023/01/16 14:05:15;;;;;;;4.20;1.15;;;6.00;99.90;;;;;;5095092;28;20031;-91
2023/01/16 14:11:14;;;;;;;3.03;1.13;;;6.00;99.90;;;;;;5095750;28;20043;-91
2023/01/16 14:13:39;;;;;;;3.58;1.00;;;6.10;99.90;;;;;;5036070;28;20500;-91
2023/01/16 14:16:35;;;;;;;3.55;1.20;;;6.10;99.90;;;;;;5078406;28;20105;-90
2023/01/16 14:19:14;;;;;;;2.95;0.90;;;6.10;99.90;;;;;;5092077;28;20505;-91
2023/01/16 14:24:43;;;;;;;3.50;1.00;;;6.10;99.90;;;;;;5038726;28;20044;-91
2023/01/16 14:27:18;;;;;;;3.92;1.20;;;6.10;99.90;;;;;;5095713;28;20071;-91
2023/01/16 14:29:49;;;;;;;3.75;1.00;;;6.10;99.90;;;;;;5078678;28;20047;-91
2023/01/16 14:32:16;;;;;;;3.92;1.05;;;6.10;99.90;;;;;;5077572;28;20044;-91
2023/01/16 14:35:10;;;;;;;3.78;1.20;;;6.10;99.90;;;;;;5078912;28;20039;-90